Time;durP1;ratioP1;P1;durP2;ratioP2;P2;SDS_P1;SDS_P2;PMS_P1;PMS_P2;Temp;Humidity;BMP_temperature;BMP_pressure;BME280_temperature;BME280_humidity;BME280_pressure;Samples;Min_cycle;Max_cycle;Signal;HPM_P1;HPM_P2
2023/09/15 00:00:44;;;;;;;2.97;1.73;;;23.80;55.10;;;;;;4904717;28;93064;-86
2023/09/15 00:03:11;;;;;;;2.22;2.03;;;23.80;55.10;;;;;;4931326;28;92651;-87
2023/09/15 00:05:37;;;;;;;1.90;1.70;;;23.80;55.10;;;;;;4927445;28;94188;-87
2023/09/15 00:08:04;;;;;;;2.83;2.20;;;23.80;55.20;;;;;;4927668;28;92422;-87
2023/09/15 00:10:31;;;;;;;2.13;1.70;;;23.80;55.30;;;;;;4912288;28;93220;-86
2023/09/15 00:12:58;;;;;;;2.17;1.98;;;23.70;55.20;;;;;;4915094;28;91360;-87
2023/09/15 00:15:24;;;;;;;2.40;1.88;;;23.80;55.20;;;;;;4926153;28;93354;-86
2023/09/15 00:17:50;;;;;;;1.73;1.63;;;23.80;55.30;;;;;;4927700;28;92749;-86
2023/09/15 00:20:21;;;;;;;1.92;1.70;;;23.80;55.00;;;;;;4925173;28;93355;-87
2023/09/15 00:22:52;;;;;;;1.92;1.67;;;23.70;55.00;;;;;;4927643;28;93067;-87
2023/09/15 00:25:23;;;;;;;2.13;1.88;;;23.80;55.20;;;;;;4926769;28;93195;-86
2023/09/15 00:27:51;;;;;;;2.03;1.83;;;23.70;55.20;;;;;;4926549;28;93140;-87
2023/09/15 00:30:18;;;;;;;2.00;1.90;;;23.70;55.80;;;;;;4928785;28;93121;-87
2023/09/15 00:32:46;;;;;;;2.67;2.03;;;23.70;55.20;;;;;;4909773;28;93229;-86
2023/09/15 00:35:12;;;;;;;2.20;1.80;;;23.70;55.20;;;;;;4928640;28;92048;-86
2023/09/15 00:37:38;;;;;;;2.15;1.50;;;23.70;55.30;;;;;;4928613;28;92620;-87
2023/09/15 00:40:08;;;;;;;2.22;1.90;;;23.70;55.20;;;;;;4930616;28;91940;-87
2023/09/15 00:42:34;;;;;;;1.75;1.65;;;23.70;55.30;;;;;;4914207;28;93204;-87
2023/09/15 00:45:04;;;;;;;1.95;1.48;;;23.70;55.20;;;;;;4910275;28;97396;-87
2023/09/15 00:47:31;;;;;;;2.05;1.85;;;23.70;55.20;;;;;;4932012;28;93746;-86
2023/09/15 00:49:58;;;;;;;1.85;1.75;;;23.70;55.30;;;;;;4922694;28;92837;-87
2023/09/15 00:52:24;;;;;;;1.83;1.65;;;23.70;55.30;;;;;;4908230;28;92897;-87
2023/09/15 00:54:49;;;;;;;2.58;2.15;;;23.70;55.40;;;;;;4929421;28;92868;-86
2023/09/15 00:57:16;;;;;;;1.95;1.60;;;23.70;55.40;;;;;;4924936;28;92703;-87
2023/09/15 00:59:42;;;;;;;1.73;1.60;;;23.70;55.30;;;;;;4931141;28;92790;-87
2023/09/15 01:02:07;;;;;;;2.28;1.80;;;23.70;55.40;;;;;;4926419;28;92655;-86
2023/09/15 01:04:34;;;;;;;1.95;1.70;;;23.70;55.50;;;;;;4926743;28;93416;-87
2023/09/15 01:07:03;;;;;;;2.40;2.00;;;23.70;55.50;;;;;;4927170;28;93397;-86
2023/09/15 01:09:31;;;;;;;2.63;2.00;;;23.60;55.50;;;;;;4930780;28;94769;-86
2023/09/15 01:11:56;;;;;;;2.10;1.67;;;23.70;55.50;;;;;;4926812;28;93413;-86
2023/09/15 01:14:22;;;;;;;2.17;1.80;;;23.60;55.50;;;;;;4929164;28;93759;-86
2023/09/15 01:17:02;;;;;;;2.15;1.75;;;23.60;55.60;;;;;;4932115;28;92822;-87
2023/09/15 01:19:53;;;;;;;1.80;1.70;;;23.60;55.60;;;;;;4929636;28;92435;-87
2023/09/15 01:22:30;;;;;;;1.75;1.58;;;23.60;55.70;;;;;;4930615;28;92991;-87
2023/09/15 01:25:16;;;;;;;1.60;1.50;;;23.60;55.80;;;;;;4924870;28;95441;-86
2023/09/15 01:28:07;;;;;;;2.13;1.70;;;23.60;55.70;;;;;;4928942;28;98026;-86
2023/09/15 01:30:33;;;;;;;1.98;1.77;;;23.60;55.60;;;;;;4914970;28;93204;-86
2023/09/15 01:33:00;;;;;;;3.72;1.98;;;23.60;55.70;;;;;;4911627;28;93537;-86
2023/09/15 01:35:25;;;;;;;2.03;1.70;;;23.60;55.70;;;;;;4937210;28;94043;-87
2023/09/15 01:37:51;;;;;;;1.92;1.58;;;23.60;55.80;;;;;;4931900;28;93660;-87
2023/09/15 01:40:17;;;;;;;2.03;1.83;;;23.60;55.80;;;;;;4930555;28;92840;-86
2023/09/15 01:42:46;;;;;;;2.40;1.75;;;23.60;55.70;;;;;;4934639;28;93756;-86
2023/09/15 01:45:11;;;;;;;2.20;1.67;;;23.60;55.70;;;;;;4928925;28;93151;-87
2023/09/15 01:47:37;;;;;;;1.95;1.75;;;23.60;55.70;;;;;;4927660;28;95317;-86
2023/09/15 01:50:05;;;;;;;1.90;1.80;;;23.60;55.70;;;;;;4929525;28;93345;-87
2023/09/15 01:52:31;;;;;;;1.80;1.70;;;23.60;55.70;;;;;;4933887;28;91883;-87
2023/09/15 01:54:57;;;;;;;2.00;1.80;;;23.60;55.70;;;;;;4930656;28;94200;-87
2023/09/15 01:57:23;;;;;;;2.05;1.83;;;23.60;55.70;;;;;;4927631;28;93042;-88
2023/09/15 01:59:49;;;;;;;2.20;2.00;;;23.60;55.70;;;;;;4930389;28;94310;-87
2023/09/15 02:02:15;;;;;;;2.53;1.90;;;23.60;55.70;;;;;;4927050;28;92339;-86
2023/09/15 02:04:40;;;;;;;2.20;1.83;;;23.50;55.70;;;;;;4928822;28;93190;-87
2023/09/15 02:07:07;;;;;;;2.63;1.70;;;23.60;55.90;;;;;;4908372;28;96736;-87
2023/09/15 02:09:33;;;;;;;1.98;1.85;;;23.50;55.80;;;;;;4932509;28;92880;-86
2023/09/15 02:11:59;;;;;;;2.35;1.85;;;23.50;56.30;;;;;;4931155;28;92636;-87
2023/09/15 02:14:25;;;;;;;1.90;1.67;;;23.50;55.90;;;;;;4934287;28;93662;-87
2023/09/15 02:16:51;;;;;;;1.60;1.50;;;23.50;55.80;;;;;;4927108;28;92138;-87
2023/09/15 02:19:18;;;;;;;1.92;1.73;;;23.50;56.00;;;;;;4932816;28;92297;-87
2023/09/15 02:21:44;;;;;;;2.17;1.80;;;23.50;56.00;;;;;;4930606;28;92812;-87
2023/09/15 02:24:10;;;;;;;1.70;1.60;;;23.50;55.80;;;;;;4929221;28;93798;-87
2023/09/15 02:26:35;;;;;;;2.13;1.90;;;23.50;55.80;;;;;;4930436;28;92892;-87
2023/09/15 02:29:01;;;;;;;2.13;1.92;;;23.50;56.00;;;;;;4930951;28;92102;-86
2023/09/15 02:31:27;;;;;;;2.40;1.88;;;23.50;56.00;;;;;;4930565;28;93313;-87
2023/09/15 02:33:52;;;;;;;1.73;1.63;;;23.50;55.90;;;;;;4930041;28;94723;-88
2023/09/15 02:36:18;;;;;;;1.83;1.73;;;23.50;56.00;;;;;;4913723;28;95020;-86
2023/09/15 02:38:43;;;;;;;1.55;1.45;;;23.50;56.10;;;;;;4912944;28;93627;-87
2023/09/15 02:41:09;;;;;;;2.10;1.90;;;23.50;56.10;;;;;;4930849;28;91711;-87
2023/09/15 02:43:35;;;;;;;1.92;1.67;;;23.40;56.10;;;;;;4931214;28;93004;-87
2023/09/15 02:46:04;;;;;;;2.05;1.73;;;23.40;56.10;;;;;;4931031;28;93256;-86
2023/09/15 02:48:29;;;;;;;;;;;23.50;56.20;;;;;;4929760;28;94109;-87
2023/09/15 02:50:57;;;;;;;2.42;2.08;;;23.50;56.10;;;;;;4933367;28;92979;-87
2023/09/15 02:53:23;;;;;;;2.10;1.90;;;23.40;56.70;;;;;;4930459;28;92946;-87
2023/09/15 02:55:59;;;;;;;1.83;1.73;;;23.40;56.20;;;;;;4930873;28;92225;-86
2023/09/15 02:58:29;;;;;;;1.60;1.50;;;23.40;56.10;;;;;;4931410;28;93269;-88
2023/09/15 03:00:55;;;;;;;;;;;23.40;56.20;;;;;;4930960;28;92783;-87
2023/09/15 03:03:23;;;;;;;4.00;1.67;;;23.40;56.30;;;;;;4927802;28;92615;-86
2023/09/15 03:05:48;;;;;;;1.88;1.70;;;23.40;56.20;;;;;;4929883;28;92534;-86
2023/09/15 03:08:14;;;;;;;2.78;1.75;;;23.40;56.10;;;;;;4933997;28;92723;-87
2023/09/15 03:10:40;;;;;;;1.67;1.58;;;23.40;56.30;;;;;;4930894;28;93052;-87
2023/09/15 03:13:05;;;;;;;2.20;2.00;;;23.40;56.20;;;;;;4928733;28;94556;-87
2023/09/15 03:15:32;;;;;;;3.00;1.90;;;23.40;56.30;;;;;;4932419;28;94337;-86
2023/09/15 03:17:58;;;;;;;1.95;1.75;;;23.40;56.20;;;;;;4928927;28;93216;-87
2023/09/15 03:20:24;;;;;;;2.15;1.63;;;23.40;56.30;;;;;;4910682;28;92615;-87
2023/09/15 03:22:51;;;;;;;3.78;1.63;;;23.40;56.40;;;;;;4928359;28;94290;-87
2023/09/15 03:25:17;;;;;;;1.73;1.42;;;23.40;56.20;;;;;;4910714;28;94495;-87
2023/09/15 03:27:43;;;;;;;2.55;1.60;;;23.40;56.20;;;;;;4929463;28;93497;-87
2023/09/15 03:30:10;;;;;;;2.15;1.95;;;23.40;56.30;;;;;;4914531;28;91770;-86
2023/09/15 03:32:36;;;;;;;2.15;1.83;;;23.40;56.10;;;;;;4913528;28;94624;-87
2023/09/15 03:35:02;;;;;;;2.13;1.60;;;23.40;56.20;;;;;;4907484;28;96060;-87
2023/09/15 03:37:30;;;;;;;1.60;1.50;;;23.40;56.10;;;;;;4909609;28;93695;-87
2023/09/15 03:39:56;;;;;;;1.80;1.70;;;23.40;56.20;;;;;;4930761;28;93203;-87
2023/09/15 03:42:21;;;;;;;1.98;1.77;;;23.40;56.20;;;;;;4927903;28;94119;-86
2023/09/15 03:44:47;;;;;;;1.98;1.77;;;23.40;56.20;;;;;;4928408;28;92816;-87
2023/09/15 03:47:13;;;;;;;1.60;1.50;;;23.40;56.30;;;;;;4930065;28;92414;-87
2023/09/15 03:49:38;;;;;;;2.10;1.90;;;23.40;56.20;;;;;;4909982;28;93214;-87
2023/09/15 03:52:04;;;;;;;1.80;1.70;;;23.40;56.10;;;;;;4930344;28;92988;-86
2023/09/15 03:54:30;;;;;;;1.80;1.70;;;23.40;56.20;;;;;;4930522;28;92242;-87
2023/09/15 03:56:55;;;;;;;1.70;1.60;;;23.40;56.30;;;;;;4927782;28;93268;-87
2023/09/15 03:59:21;;;;;;;1.80;1.63;;;23.40;56.30;;;;;;4928796;28;92647;-87
2023/09/15 04:01:47;;;;;;;1.90;1.80;;;23.30;56.20;;;;;;4929346;28;94334;-87
2023/09/15 04:04:13;;;;;;;1.85;1.70;;;23.30;56.10;;;;;;4929680;28;93840;-87
2023/09/15 04:06:39;;;;;;;2.13;1.70;;;23.30;56.20;;;;;;4926872;28;93117;-86
2023/09/15 04:09:09;;;;;;;2.03;1.75;;;23.30;56.20;;;;;;4929165;28;92544;-86
2023/09/15 04:11:35;;;;;;;1.50;1.40;;;23.30;56.10;;;;;;4910428;28;94579;-87
2023/09/15 04:14:01;;;;;;;2.20;2.00;;;23.30;56.20;;;;;;4913261;28;93742;-86
2023/09/15 04:16:27;;;;;;;2.10;1.67;;;23.30;56.20;;;;;;4910927;28;93936;-87
2023/09/15 04:18:52;;;;;;;2.35;1.90;;;23.30;56.30;;;;;;4935952;28;91646;-86
2023/09/15 04:21:18;;;;;;;1.70;1.60;;;23.30;56.40;;;;;;4924094;28;93392;-88
2023/09/15 04:23:43;;;;;;;2.38;1.90;;;23.30;56.50;;;;;;4927252;28;92265;-87
2023/09/15 04:26:09;;;;;;;2.97;1.70;;;23.30;56.50;;;;;;4930291;28;93339;-87
2023/09/15 04:28:35;;;;;;;2.33;2.13;;;23.30;56.30;;;;;;4909036;28;93089;-87
2023/09/15 04:31:00;;;;;;;1.80;1.70;;;23.30;56.30;;;;;;4930605;28;95622;-86
2023/09/15 04:33:26;;;;;;;2.10;1.70;;;23.30;56.30;;;;;;4930320;28;93688;-86
2023/09/15 04:35:51;;;;;;;2.28;1.83;;;23.30;56.20;;;;;;4927460;28;93446;-86
2023/09/15 04:38:18;;;;;;;1.85;1.70;;;23.30;56.30;;;;;;4925758;28;92547;-87
2023/09/15 04:40:43;;;;;;;2.05;1.73;;;23.30;56.20;;;;;;4927863;28;93420;-87
2023/09/15 04:43:09;;;;;;;1.63;1.52;;;23.30;56.30;;;;;;4928824;28;92813;-87
2023/09/15 04:45:34;;;;;;;2.08;1.65;;;23.30;56.40;;;;;;4932021;28;93016;-87
2023/09/15 04:48:00;;;;;;;1.63;1.52;;;23.30;56.30;;;;;;4931814;28;92499;-86
2023/09/15 04:50:26;;;;;;;1.60;1.50;;;23.20;56.10;;;;;;4928403;28;93927;-87
2023/09/15 04:52:55;;;;;;;1.90;1.80;;;23.20;56.20;;;;;;4927951;28;94164;-87
2023/09/15 04:55:22;;;;;;;2.08;1.80;;;23.20;56.20;;;;;;4931939;28;93093;-87
2023/09/15 04:57:47;;;;;;;1.90;1.70;;;23.20;56.20;;;;;;4914771;28;93236;-87
2023/09/15 05:00:21;;;;;;;1.75;1.65;;;23.20;56.30;;;;;;4929966;28;93095;-87
2023/09/15 05:02:46;;;;;;;2.03;1.83;;;23.20;56.30;;;;;;4933780;28;93037;-86
2023/09/15 05:05:12;;;;;;;2.03;1.65;;;23.20;56.50;;;;;;4916309;28;93565;-87
2023/09/15 05:07:37;;;;;;;1.95;1.52;;;23.20;56.40;;;;;;4911839;28;92769;-87
2023/09/15 05:10:03;;;;;;;2.25;1.63;;;23.20;56.40;;;;;;4932754;28;93772;-87
2023/09/15 05:12:29;;;;;;;1.77;1.67;;;23.20;56.40;;;;;;4931388;28;92994;-87
2023/09/15 05:14:55;;;;;;;1.77;1.67;;;23.20;56.40;;;;;;4927619;28;94324;-87
2023/09/15 05:17:22;;;;;;;1.80;1.70;;;23.20;56.50;;;;;;4908019;28;92448;-87
2023/09/15 05:19:49;;;;;;;2.60;1.90;;;23.20;56.40;;;;;;4928060;28;93927;-87
2023/09/15 05:22:15;;;;;;;2.35;1.67;;;23.20;56.40;;;;;;4931962;28;92977;-87
2023/09/15 05:24:40;;;;;;;1.70;1.60;;;23.20;56.40;;;;;;4911422;28;93085;-86
2023/09/15 05:27:06;;;;;;;1.67;1.58;;;23.20;56.20;;;;;;4933253;28;92808;-86
2023/09/15 05:29:32;;;;;;;2.38;1.30;;;23.20;56.20;;;;;;4914195;28;95168;-87
2023/09/15 05:31:57;;;;;;;2.35;2.15;;;23.20;56.50;;;;;;4933913;28;92910;-87
2023/09/15 05:34:23;;;;;;;1.80;1.70;;;23.20;56.50;;;;;;4931188;28;92526;-86
2023/09/15 05:36:50;;;;;;;1.52;1.42;;;23.20;56.40;;;;;;4913225;28;92803;-87
2023/09/15 05:39:15;;;;;;;1.98;1.67;;;23.20;56.40;;;;;;4928345;28;94018;-86
2023/09/15 05:41:41;;;;;;;1.63;1.52;;;23.20;56.40;;;;;;4914385;28;97111;-87
2023/09/15 05:44:06;;;;;;;2.28;2.00;;;23.20;56.40;;;;;;4930973;28;92078;-87
2023/09/15 05:46:32;;;;;;;3.00;1.75;;;23.20;56.40;;;;;;4930796;28;93204;-87
2023/09/15 05:48:58;;;;;;;2.00;1.42;;;23.20;56.30;;;;;;4933448;28;93686;-87
2023/09/15 05:51:23;;;;;;;3.03;1.75;;;23.20;56.40;;;;;;4933945;28;93400;-87
2023/09/15 05:53:49;;;;;;;1.80;1.63;;;23.20;56.40;;;;;;4934605;28;92659;-87
2023/09/15 05:56:15;;;;;;;3.22;1.73;;;23.20;56.30;;;;;;4932710;28;91360;-87
2023/09/15 05:58:41;;;;;;;1.60;1.50;;;23.20;56.40;;;;;;4933095;28;93991;-87
2023/09/15 06:01:07;;;;;;;2.80;1.60;;;23.20;56.50;;;;;;4932492;28;93143;-88
2023/09/15 06:03:32;;;;;;;1.63;1.52;;;23.10;56.20;;;;;;4926576;28;94176;-87
2023/09/15 06:05:58;;;;;;;1.52;1.40;;;23.20;56.50;;;;;;4932854;28;93178;-87
2023/09/15 06:08:24;;;;;;;2.15;1.95;;;23.20;56.40;;;;;;4912727;28;95260;-87
2023/09/15 06:10:49;;;;;;;2.13;1.50;;;23.20;56.20;;;;;;4931171;28;100977;-86
2023/09/15 06:13:15;;;;;;;2.42;1.83;;;23.20;56.30;;;;;;4930912;28;92753;-87
2023/09/15 06:15:41;;;;;;;2.00;1.80;;;23.20;56.40;;;;;;4931842;28;92265;-87
2023/09/15 06:18:07;;;;;;;2.58;1.65;;;23.20;56.00;;;;;;4933219;28;93081;-87
2023/09/15 06:20:33;;;;;;;1.73;1.63;;;23.20;56.10;;;;;;4916607;28;96276;-86
2023/09/15 06:23:03;;;;;;;2.53;2.17;;;23.30;56.10;;;;;;4910693;28;92888;-86
2023/09/15 06:25:32;;;;;;;2.00;1.80;;;23.30;56.10;;;;;;4933995;28;93714;-86
2023/09/15 06:27:59;;;;;;;1.40;1.30;;;23.40;56.10;;;;;;4922080;28;97067;-87
2023/09/15 06:30:27;;;;;;;2.00;1.80;;;23.40;56.10;;;;;;4913244;28;100902;-87
2023/09/15 06:32:54;;;;;;;5.70;1.52;;;23.40;56.20;;;;;;4917044;28;92350;-87
2023/09/15 06:35:20;;;;;;;1.92;1.60;;;23.40;56.20;;;;;;4930511;28;92704;-86
2023/09/15 06:37:45;;;;;;;3.30;1.95;;;23.40;56.20;;;;;;4931646;28;93625;-87
2023/09/15 06:40:12;;;;;;;3.08;1.67;;;23.40;56.10;;;;;;4913119;28;94056;-90
2023/09/15 06:42:37;;;;;;;4.50;2.03;;;23.40;56.00;;;;;;4934722;28;92471;-90
2023/09/15 06:45:03;;;;;;;5.60;3.35;;;23.50;53.90;;;;;;4914135;28;92356;-89
2023/09/15 06:47:29;;;;;;;4.78;3.00;;;23.40;52.00;;;;;;4912673;28;95838;-90
2023/09/15 06:49:55;;;;;;;6.30;2.95;;;23.40;51.50;;;;;;4933475;28;92864;-89
2023/09/15 06:52:21;;;;;;;7.40;3.25;;;23.40;51.10;;;;;;4925172;28;93794;-90
2023/09/15 06:54:46;;;;;;;5.72;2.80;;;23.40;51.40;;;;;;4912556;28;93139;-89
2023/09/15 06:57:12;;;;;;;8.05;2.95;;;23.40;51.30;;;;;;4930754;28;93766;-90
2023/09/15 06:59:37;;;;;;;5.43;3.10;;;23.40;51.30;;;;;;4931035;28;93936;-89
2023/09/15 07:02:03;;;;;;;8.05;3.28;;;23.40;51.20;;;;;;4934489;28;93083;-90
2023/09/15 07:04:29;;;;;;;7.28;3.40;;;23.40;51.30;;;;;;4931293;28;92810;-89
2023/09/15 07:06:55;;;;;;;10.85;3.65;;;23.40;51.10;;;;;;4933582;28;92848;-88
2023/09/15 07:09:22;;;;;;;8.98;4.43;;;23.40;50.90;;;;;;4933909;28;93130;-89
2023/09/15 07:11:48;;;;;;;7.05;4.03;;;23.30;50.60;;;;;;4931045;28;92385;-88
2023/09/15 07:14:13;;;;;;;7.90;4.05;;;23.30;51.10;;;;;;4927229;28;92499;-87
2023/09/15 07:16:40;;;;;;;5.88;3.45;;;23.20;51.20;;;;;;4925875;28;94678;-88
2023/09/15 07:19:06;;;;;;;7.13;3.90;;;23.20;51.50;;;;;;4933525;28;93751;-90
2023/09/15 07:21:31;;;;;;;10.65;4.55;;;23.20;51.50;;;;;;4933629;28;93010;-90
2023/09/15 07:23:59;;;;;;;7.85;3.92;;;23.10;51.90;;;;;;4928508;28;92496;-89
2023/09/15 07:26:26;;;;;;;4.55;3.42;;;23.10;52.10;;;;;;4930810;28;93362;-90
2023/09/15 07:28:52;;;;;;;6.13;3.42;;;23.00;52.20;;;;;;4913865;28;93885;-89
2023/09/15 07:31:19;;;;;;;6.43;3.20;;;23.10;52.60;;;;;;4928080;28;93353;-91
2023/09/15 07:33:45;;;;;;;8.10;3.20;;;23.00;52.60;;;;;;4935641;28;92001;-90
2023/09/15 07:36:12;;;;;;;6.05;3.20;;;23.10;52.50;;;;;;4930194;28;93522;-91
2023/09/15 07:38:37;;;;;;;6.55;3.20;;;23.00;52.30;;;;;;4927670;28;92888;-91
2023/09/15 07:41:03;;;;;;;7.00;3.13;;;23.00;52.20;;;;;;4932430;28;93381;-89
2023/09/15 07:43:29;;;;;;;6.18;3.45;;;23.00;52.50;;;;;;4933065;28;92639;-89
2023/09/15 07:45:54;;;;;;;6.75;3.17;;;23.10;52.70;;;;;;4930181;28;92734;-90
2023/09/15 07:48:21;;;;;;;6.93;2.75;;;23.10;52.80;;;;;;4930649;28;94362;-90
2023/09/15 07:50:47;;;;;;;9.82;3.15;;;23.10;52.90;;;;;;4927094;28;93104;-88
2023/09/15 07:53:13;;;;;;;86.43;16.10;;;23.10;52.70;;;;;;4929681;28;92601;-88
2023/09/15 07:55:39;;;;;;;79.47;15.57;;;23.20;52.70;;;;;;4909665;28;96253;-89
2023/09/15 07:58:05;;;;;;;46.30;8.73;;;23.20;52.70;;;;;;4926696;28;93238;-88
2023/09/15 08:00:31;;;;;;;24.02;6.07;;;23.20;53.00;;;;;;4925961;28;92996;-88
2023/09/15 08:02:56;;;;;;;16.35;5.03;;;23.20;53.20;;;;;;4928406;28;92436;-88
2023/09/15 08:05:23;;;;;;;16.17;5.43;;;23.10;53.40;;;;;;4929449;28;94502;-89
2023/09/15 08:07:49;;;;;;;10.45;3.83;;;23.00;53.70;;;;;;4923849;28;96665;-89
2023/09/15 08:10:17;;;;;;;8.73;3.38;;;23.00;53.90;;;;;;4912864;28;92840;-88
2023/09/15 08:12:43;;;;;;;5.37;3.13;;;23.00;54.20;;;;;;4927466;28;92779;-88
2023/09/15 08:15:10;;;;;;;6.90;3.30;;;23.00;54.10;;;;;;4924998;28;92849;-88
2023/09/15 08:17:36;;;;;;;9.75;2.80;;;23.00;54.90;;;;;;4926686;28;93218;-88
2023/09/15 08:20:03;;;;;;;5.85;2.83;;;23.00;54.20;;;;;;4929951;28;93056;-88
2023/09/15 08:22:29;;;;;;;9.73;3.30;;;23.00;54.40;;;;;;4913662;28;91940;-88
2023/09/15 08:24:55;;;;;;;6.55;3.25;;;23.00;54.40;;;;;;4912066;28;95585;-88
2023/09/15 08:27:21;;;;;;;7.65;2.92;;;23.00;54.40;;;;;;4927869;28;93994;-88
2023/09/15 08:29:47;;;;;;;5.40;2.67;;;23.00;54.20;;;;;;4913568;28;93149;-88
2023/09/15 08:32:14;;;;;;;5.10;2.80;;;23.00;54.30;;;;;;4926912;28;92934;-88
2023/09/15 08:34:41;;;;;;;8.48;3.10;;;23.00;54.50;;;;;;4913848;28;95880;-88
2023/09/15 08:37:07;;;;;;;5.40;2.75;;;23.00;54.50;;;;;;4906215;28;95188;-89
2023/09/15 08:39:32;;;;;;;6.20;2.45;;;23.00;54.80;;;;;;4928804;28;93431;-88
2023/09/15 08:42:01;;;;;;;7.88;2.65;;;23.10;54.00;;;;;;4925904;28;93463;-88
2023/09/15 08:44:30;;;;;;;;;;;23.10;54.50;;;;;;4906612;28;97049;-88
2023/09/15 08:46:56;;;;;;;4.87;2.00;;;23.10;54.30;;;;;;4928943;28;92116;-88
2023/09/15 08:49:23;;;;;;;6.53;2.90;;;23.10;54.50;;;;;;4909456;28;93075;-88
2023/09/15 08:51:51;;;;;;;5.07;2.20;;;23.00;54.20;;;;;;4929386;28;92811;-88
2023/09/15 08:54:18;;;;;;;5.00;2.20;;;23.10;54.30;;;;;;4929658;28;94095;-88
2023/09/15 08:56:44;;;;;;;6.88;2.38;;;23.10;54.70;;;;;;4925505;28;93599;-89
2023/09/15 08:59:11;;;;;;;4.53;2.30;;;23.10;55.00;;;;;;4910829;28;94467;-88
2023/09/15 09:01:36;;;;;;;5.43;2.05;;;23.10;55.00;;;;;;4926406;28;93357;-90
2023/09/15 09:04:03;;;;;;;7.32;2.60;;;23.20;54.80;;;;;;4925268;28;93973;-89
2023/09/15 09:06:32;;;;;;;5.97;2.25;;;23.20;55.00;;;;;;4928567;28;93398;-89
2023/09/15 09:08:58;;;;;;;8.70;2.30;;;23.20;55.00;;;;;;4906508;28;92878;-89
2023/09/15 09:11:23;;;;;;;4.85;2.47;;;23.20;55.10;;;;;;4928311;28;91617;-89
2023/09/15 09:13:51;;;;;;;8.43;2.35;;;23.20;55.30;;;;;;4930456;28;93268;-90
2023/09/15 09:16:18;;;;;;;7.80;2.35;;;23.20;55.30;;;;;;4911151;28;95711;-89
2023/09/15 09:18:55;;;;;;;8.07;2.28;;;23.30;54.90;;;;;;4909018;28;94370;-89
2023/09/15 09:21:27;;;;;;;13.05;2.13;;;23.30;54.70;;;;;;4906595;28;92969;-88
2023/09/15 09:23:53;;;;;;;11.45;2.20;;;23.30;54.60;;;;;;4925428;28;92986;-91
2023/09/15 09:26:18;;;;;;;9.80;1.83;;;23.30;54.70;;;;;;4923242;28;92866;-90
2023/09/15 09:28:44;;;;;;;7.28;2.45;;;23.40;54.80;;;;;;4925974;28;93685;-89
2023/09/15 09:31:10;;;;;;;5.47;1.85;;;23.40;54.70;;;;;;4909273;28;92938;-90
2023/09/15 09:33:36;;;;;;;8.93;2.13;;;23.40;54.70;;;;;;4910279;28;95991;-90
2023/09/15 09:36:28;;;;;;;7.13;2.08;;;23.40;55.20;;;;;;4927704;28;92500;-89
2023/09/15 09:38:55;;;;;;;7.65;2.45;;;23.40;55.80;;;;;;4921554;28;93098;-88
2023/09/15 09:41:24;;;;;;;4.40;2.20;;;23.40;55.90;;;;;;4934920;28;92569;-88
2023/09/15 09:43:50;;;;;;;;;;;23.40;56.20;;;;;;4913047;28;95097;-87
2023/09/15 09:46:19;;;;;;;6.05;2.13;;;23.40;56.40;;;;;;4916152;28;95741;-87
2023/09/15 09:48:44;;;;;;;;;;;23.40;56.30;;;;;;4930180;28;92420;-89
2023/09/15 09:51:11;;;;;;;8.05;2.30;;;23.50;56.40;;;;;;4933028;28;92988;-89
2023/09/15 09:53:37;;;;;;;4.35;2.10;;;23.50;56.50;;;;;;4932676;28;92672;-90
2023/09/15 09:56:07;;;;;;;6.05;2.67;;;23.50;56.90;;;;;;4911061;28;95752;-88
2023/09/15 09:58:34;;;;;;;3.60;2.35;;;23.50;56.70;;;;;;4932720;28;92247;-89
2023/09/15 10:01:00;;;;;;;20.98;3.90;;;23.50;56.90;;;;;;4913030;28;91759;-87
2023/09/15 10:03:26;;;;;;;21.25;5.65;;;23.50;56.80;;;;;;4912346;28;95564;-91
2023/09/15 10:05:55;;;;;;;36.83;12.48;;;23.50;56.80;;;;;;4928066;28;93266;-89
2023/09/15 10:08:20;;;;;;;26.88;8.68;;;23.50;56.80;;;;;;4913307;28;93502;-89
2023/09/15 10:10:49;;;;;;;23.10;7.75;;;23.60;56.90;;;;;;4931630;28;92786;-87
2023/09/15 10:13:14;;;;;;;24.43;6.57;;;23.50;56.80;;;;;;4928973;28;93765;-88
2023/09/15 10:15:41;;;;;;;28.30;7.03;;;23.60;56.70;;;;;;4922518;28;95079;-89
2023/09/15 10:18:14;;;;;;;18.02;4.90;;;23.60;56.60;;;;;;4933410;28;92524;-88
2023/09/15 10:20:43;;;;;;;12.13;4.53;;;23.60;56.60;;;;;;4929863;28;93339;-89
2023/09/15 10:23:12;;;;;;;14.03;5.47;;;23.50;56.80;;;;;;4926619;28;93125;-89
2023/09/15 10:25:48;;;;;;;12.98;4.85;;;23.50;56.90;;;;;;4925424;28;94096;-90
2023/09/15 10:28:17;;;;;;;10.93;4.20;;;23.50;57.20;;;;;;4908832;28;92204;-90
2023/09/15 10:30:43;;;;;;;9.97;3.60;;;23.50;56.90;;;;;;4897066;28;92090;-90
2023/09/15 10:33:10;;;;;;;10.00;3.40;;;23.50;56.90;;;;;;4912014;28;93028;-87
2023/09/15 10:35:40;;;;;;;6.18;3.30;;;23.60;57.00;;;;;;4923584;28;93731;-88
2023/09/15 10:38:06;;;;;;;5.60;2.60;;;23.60;56.90;;;;;;4932006;28;92066;-87
2023/09/15 10:40:50;;;;;;;4.88;2.10;;;23.60;56.10;;;;;;4934281;28;92488;-87
2023/09/15 10:43:19;;;;;;;9.45;2.05;;;23.60;55.70;;;;;;4927996;28;93221;-92
2023/09/15 10:45:55;;;;;;;5.80;2.25;;;23.60;55.90;;;;;;4935372;28;93528;-93
2023/09/15 10:48:22;;;;;;;5.30;2.50;;;23.60;56.00;;;;;;4919853;28;92414;-90
2023/09/15 10:50:47;;;;;;;5.85;1.88;;;23.60;56.00;;;;;;4938802;28;91812;-90
2023/09/15 10:53:14;;;;;;;8.55;2.65;;;23.70;56.10;;;;;;4916458;28;94628;-89
2023/09/15 10:55:40;;;;;;;5.88;2.17;;;23.70;56.20;;;;;;4933461;28;92646;-91
2023/09/15 10:58:06;;;;;;;6.57;1.90;;;23.70;56.30;;;;;;4932197;28;93553;-92
2023/09/15 11:00:33;;;;;;;6.53;2.33;;;23.60;56.20;;;;;;4917948;28;93263;-91
2023/09/15 11:02:59;;;;;;;5.45;2.10;;;23.70;56.40;;;;;;4931054;28;92747;-90
2023/09/15 11:05:28;;;;;;;4.45;2.08;;;23.70;56.00;;;;;;4933848;28;92773;-91
2023/09/15 11:07:58;;;;;;;5.45;2.05;;;23.70;56.10;;;;;;4907804;28;94118;-92
2023/09/15 11:10:29;;;;;;;5.15;2.10;;;23.70;56.10;;;;;;4914997;28;92535;-93
2023/09/15 11:13:00;;;;;;;3.63;2.30;;;23.70;56.20;;;;;;4933775;28;93228;-93
2023/09/15 11:15:27;;;;;;;3.88;2.10;;;23.70;56.10;;;;;;4916975;28;100042;-92
2023/09/15 11:17:53;;;;;;;4.78;2.20;;;23.70;56.20;;;;;;4916062;28;92274;-92
2023/09/15 11:20:18;;;;;;;6.88;1.92;;;23.60;56.40;;;;;;4910088;28;93235;-94
2023/09/15 11:22:44;;;;;;;4.22;1.98;;;23.70;56.40;;;;;;4915337;28;97134;-95
2023/09/15 11:25:10;;;;;;;4.68;2.05;;;23.70;56.50;;;;;;4931806;28;93313;-95
2023/09/15 11:27:36;;;;;;;4.18;2.08;;;23.60;56.60;;;;;;4939075;28;92610;-95
2023/09/15 11:30:06;;;;;;;3.63;2.05;;;23.70;56.00;;;;;;4935169;28;92520;-95
2023/09/15 11:32:35;;;;;;;5.72;2.35;;;23.70;55.40;;;;;;4920972;28;94570;-95
2023/09/15 11:35:09;;;;;;;7.07;2.13;;;23.70;55.40;;;;;;4931956;28;92786;-94
2023/09/15 11:37:35;;;;;;;3.15;1.98;;;23.70;55.40;;;;;;4914505;28;92063;-94
2023/09/15 11:40:00;;;;;;;6.68;1.75;;;23.70;55.10;;;;;;4935060;28;91962;-94
2023/09/15 11:42:26;;;;;;;5.55;2.17;;;23.70;55.10;;;;;;4933548;28;93444;-90
2023/09/15 11:44:52;;;;;;;4.57;2.15;;;23.70;55.40;;;;;;4912970;28;95475;-93
2023/09/15 11:47:18;;;;;;;5.30;2.13;;;23.70;55.00;;;;;;4936827;28;93523;-91
2023/09/15 11:49:45;;;;;;;3.15;1.90;;;23.80;55.20;;;;;;4930642;28;92350;-94
2023/09/15 11:52:11;;;;;;;6.40;2.03;;;23.80;55.00;;;;;;4940178;28;93308;-94
2023/09/15 11:54:37;;;;;;;4.32;1.90;;;23.80;54.80;;;;;;4940369;28;92547;-93
2023/09/15 11:57:03;;;;;;;5.25;2.17;;;23.80;54.90;;;;;;4923009;28;92629;-93
2023/09/15 11:59:29;;;;;;;6.80;1.73;;;23.80;55.00;;;;;;4922833;28;92692;-93
2023/09/15 12:01:58;;;;;;;6.57;2.25;;;23.80;55.00;;;;;;4942943;28;93575;-95
2023/09/15 12:04:28;;;;;;;2.50;1.80;;;23.80;54.90;;;;;;4943722;28;93756;-94
2023/09/15 12:06:54;;;;;;;4.68;2.00;;;23.80;54.60;;;;;;4924495;28;92477;-93
2023/09/15 12:09:22;;;;;;;4.47;2.42;;;23.80;55.30;;;;;;4939649;28;92582;-95
2023/09/15 12:11:48;;;;;;;5.00;2.13;;;23.80;55.20;;;;;;4938783;28;93971;-95
2023/09/15 12:14:14;;;;;;;4.70;2.22;;;23.90;55.40;;;;;;4918753;28;96384;-92
2023/09/15 12:16:44;;;;;;;4.03;1.95;;;23.90;55.20;;;;;;4919400;28;92899;-94
2023/09/15 12:19:11;;;;;;;2.83;1.83;;;23.80;55.40;;;;;;4921601;28;92947;-90
2023/09/15 12:21:37;;;;;;;3.35;2.22;;;23.80;55.20;;;;;;4928753;28;93681;-92
2023/09/15 12:24:09;;;;;;;4.95;1.88;;;23.80;56.30;;;;;;4931390;28;95044;-93
2023/09/15 12:26:37;;;;;;;3.75;1.50;;;23.70;55.30;;;;;;4936331;28;92878;-92
2023/09/15 12:29:03;;;;;;;3.97;2.00;;;23.70;55.50;;;;;;4939044;28;92612;-93
2023/09/15 12:31:29;;;;;;;2.95;2.15;;;23.70;55.60;;;;;;4923598;28;96212;-93
2023/09/15 12:33:55;;;;;;;3.40;1.67;;;23.70;55.30;;;;;;4917620;28;95423;-92
2023/09/15 12:36:22;;;;;;;3.22;1.70;;;23.70;55.40;;;;;;4928767;28;93299;-93
2023/09/15 12:38:53;;;;;;;3.08;1.90;;;23.80;55.20;;;;;;4918945;28;92832;-92
2023/09/15 12:41:20;;;;;;;3.72;2.00;;;23.70;55.30;;;;;;4919486;28;96075;-93
2023/09/15 12:43:45;;;;;;;3.22;1.83;;;23.70;55.40;;;;;;4922531;28;95197;-91
2023/09/15 12:46:11;;;;;;;4.03;2.03;;;23.70;55.50;;;;;;4915463;28;92488;-90